sensor_id;sensor_type;location;lat;lon;timestamp;temperature;humidity
10889;DHT22;5497;51.388;6.780;2023-05-20T00:02:21;11.80;90.80
10889;DHT22;5497;51.388;6.780;2023-05-20T00:04:48;11.70;90.80
10889;DHT22;5497;51.388;6.780;2023-05-20T00:07:17;11.70;90.30
10889;DHT22;5497;51.388;6.780;2023-05-20T00:09:44;11.70;91.00
10889;DHT22;5497;51.388;6.780;2023-05-20T00:12:11;11.70;90.80
10889;DHT22;5497;51.388;6.780;2023-05-20T00:14:38;11.60;90.80
10889;DHT22;5497;51.388;6.780;2023-05-20T00:17:05;11.60;90.60
10889;DHT22;5497;51.388;6.780;2023-05-20T00:19:32;11.60;91.30
10889;DHT22;5497;51.388;6.780;2023-05-20T00:21:59;11.50;91.30
10889;DHT22;5497;51.388;6.780;2023-05-20T00:24:27;11.50;90.90
10889;DHT22;5497;51.388;6.780;2023-05-20T00:26:54;11.40;91.30
10889;DHT22;5497;51.388;6.780;2023-05-20T00:29:21;11.40;91.70
10889;DHT22;5497;51.388;6.780;2023-05-20T00:31:51;11.40;91.80
10889;DHT22;5497;51.388;6.780;2023-05-20T00:34:18;11.30;91.80
10889;DHT22;5497;51.388;6.780;2023-05-20T00:36:45;11.20;91.20
10889;DHT22;5497;51.388;6.780;2023-05-20T00:39:12;11.10;92.00
10889;DHT22;5497;51.388;6.780;2023-05-20T00:41:40;11.10;92.10
10889;DHT22;5497;51.388;6.780;2023-05-20T00:44:07;11.10;92.30
10889;DHT22;5497;51.388;6.780;2023-05-20T00:46:34;11.00;91.90
10889;DHT22;5497;51.388;6.780;2023-05-20T00:49:01;9.40;91.70
10889;DHT22;5497;51.388;6.780;2023-05-20T00:51:28;10.90;92.60
10889;DHT22;5497;51.388;6.780;2023-05-20T00:53:55;11.00;92.30
10889;DHT22;5497;51.388;6.780;2023-05-20T00:56:22;12.60;93.40
10889;DHT22;5497;51.388;6.780;2023-05-20T00:58:52;10.90;92.80
10889;DHT22;5497;51.388;6.780;2023-05-20T01:01:19;10.90;92.90
10889;DHT22;5497;51.388;6.780;2023-05-20T01:03:46;10.90;93.00
10889;DHT22;5497;51.388;6.780;2023-05-20T01:06:13;10.90;93.10
10889;DHT22;5497;51.388;6.780;2023-05-20T01:08:40;10.80;92.90
10889;DHT22;5497;51.388;6.780;2023-05-20T01:11:07;10.80;93.40
10889;DHT22;5497;51.388;6.780;2023-05-20T01:13:36;10.70;93.60
10889;DHT22;5497;51.388;6.780;2023-05-20T01:16:06;10.60;93.80
10889;DHT22;5497;51.388;6.780;2023-05-20T01:18:34;10.60;93.80
10889;DHT22;5497;51.388;6.780;2023-05-20T01:21:03;10.50;94.20
10889;DHT22;5497;51.388;6.780;2023-05-20T01:23:36;10.50;94.40
10889;DHT22;5497;51.388;6.780;2023-05-20T01:26:03;10.40;94.40
10889;DHT22;5497;51.388;6.780;2023-05-20T01:28:30;10.30;94.10
10889;DHT22;5497;51.388;6.780;2023-05-20T01:30:58;10.30;94.00
10889;DHT22;5497;51.388;6.780;2023-05-20T01:33:26;10.20;94.80
10889;DHT22;5497;51.388;6.780;2023-05-20T01:35:54;10.00;94.90
10889;DHT22;5497;51.388;6.780;2023-05-20T01:38:22;10.20;94.70
10889;DHT22;5497;51.388;6.780;2023-05-20T01:40:50;10.20;95.70
10889;DHT22;5497;51.388;6.780;2023-05-20T01:43:18;10.10;95.50
10889;DHT22;5497;51.388;6.780;2023-05-20T01:45:45;10.10;95.80
10889;DHT22;5497;51.388;6.780;2023-05-20T01:48:12;10.00;95.40
10889;DHT22;5497;51.388;6.780;2023-05-20T01:50:39;10.00;96.20
10889;DHT22;5497;51.388;6.780;2023-05-20T01:53:06;10.00;96.40
10889;DHT22;5497;51.388;6.780;2023-05-20T01:55:34;9.90;96.20
10889;DHT22;5497;51.388;6.780;2023-05-20T01:58:05;9.90;96.70
10889;DHT22;5497;51.388;6.780;2023-05-20T02:00:32;9.80;97.40
10889;DHT22;5497;51.388;6.780;2023-05-20T02:02:59;9.70;97.20
10889;DHT22;5497;51.388;6.780;2023-05-20T02:07:55;9.70;97.20
10889;DHT22;5497;51.388;6.780;2023-05-20T02:10:22;9.60;97.70
10889;DHT22;5497;51.388;6.780;2023-05-20T02:12:49;9.60;97.60
10889;DHT22;5497;51.388;6.780;2023-05-20T02:15:17;9.60;98.70
10889;DHT22;5497;51.388;6.780;2023-05-20T02:17:44;11.70;98.60
10889;DHT22;5497;51.388;6.780;2023-05-20T02:20:13;9.60;99.10
10889;DHT22;5497;51.388;6.780;2023-05-20T02:22:40;9.50;98.80
10889;DHT22;5497;51.388;6.780;2023-05-20T02:25:09;9.50;99.50
10889;DHT22;5497;51.388;6.780;2023-05-20T02:27:36;11.60;99.50
10889;DHT22;5497;51.388;6.780;2023-05-20T02:30:04;9.40;99.90
10889;DHT22;5497;51.388;6.780;2023-05-20T02:32:33;9.40;99.90
10889;DHT22;5497;51.388;6.780;2023-05-20T02:35:00;9.40;99.90
10889;DHT22;5497;51.388;6.780;2023-05-20T02:37:27;10.60;99.90
10889;DHT22;5497;51.388;6.780;2023-05-20T02:39:54;9.30;99.90
10889;DHT22;5497;51.388;6.780;2023-05-20T02:42:21;8.50;99.90
10889;DHT22;5497;51.388;6.780;2023-05-20T02:44:49;9.30;99.90
10889;DHT22;5497;51.388;6.780;2023-05-20T02:47:17;9.20;99.90
10889;DHT22;5497;51.388;6.780;2023-05-20T02:49:46;9.20;99.90
10889;DHT22;5497;51.388;6.780;2023-05-20T02:52:13;6.70;99.90
10889;DHT22;5497;51.388;6.780;2023-05-20T02:54:41;9.20;99.90
10889;DHT22;5497;51.388;6.780;2023-05-20T02:57:08;9.10;99.90
10889;DHT22;5497;51.388;6.780;2023-05-20T02:59:35;9.10;99.90
10889;DHT22;5497;51.388;6.780;2023-05-20T03:02:02;9.10;99.90
10889;DHT22;5497;51.388;6.780;2023-05-20T03:04:29;9.10;99.90
10889;DHT22;5497;51.388;6.780;2023-05-20T03:06:58;9.10;99.90
10889;DHT22;5497;51.388;6.780;2023-05-20T03:09:25;9.10;99.90
10889;DHT22;5497;51.388;6.780;2023-05-20T03:11:52;9.10;99.90
10889;DHT22;5497;51.388;6.780;2023-05-20T03:14:19;9.10;99.90
10889;DHT22;5497;51.388;6.780;2023-05-20T03:16:46;9.10;99.90
10889;DHT22;5497;51.388;6.780;2023-05-20T03:19:13;9.20;99.90
10889;DHT22;5497;51.388;6.780;2023-05-20T03:21:40;9.20;99.90
10889;DHT22;5497;51.388;6.780;2023-05-20T03:24:09;9.30;99.90
10889;DHT22;5497;51.388;6.780;2023-05-20T03:26:36;9.40;99.90
10889;DHT22;5497;51.388;6.780;2023-05-20T03:29:08;9.40;99.90
10889;DHT22;5497;51.388;6.780;2023-05-20T03:31:35;9.40;99.90
10889;DHT22;5497;51.388;6.780;2023-05-20T03:34:02;9.50;99.90
10889;DHT22;5497;51.388;6.780;2023-05-20T03:36:29;9.60;99.90
10889;DHT22;5497;51.388;6.780;2023-05-20T03:38:56;9.60;99.90
10889;DHT22;5497;51.388;6.780;2023-05-20T03:41:25;9.80;99.90
10889;DHT22;5497;51.388;6.780;2023-05-20T03:43:52;9.90;99.90
10889;DHT22;5497;51.388;6.780;2023-05-20T03:46:19;9.90;99.90
10889;DHT22;5497;51.388;6.780;2023-05-20T03:48:45;9.90;99.90
10889;DHT22;5497;51.388;6.780;2023-05-20T03:51:13;9.90;99.90
10889;DHT22;5497;51.388;6.780;2023-05-20T03:53:40;10.10;99.90
10889;DHT22;5497;51.388;6.780;2023-05-20T03:56:07;10.10;99.90
10889;DHT22;5497;51.388;6.780;2023-05-20T03:58:38;10.20;99.90
10889;DHT22;5497;51.388;6.780;2023-05-20T04:01:05;10.30;99.90
10889;DHT22;5497;51.388;6.780;2023-05-20T04:03:32;10.30;99.90
10889;DHT22;5497;51.388;6.780;2023-05-20T04:06:00;10.30;99.90
10889;DHT22;5497;51.388;6.780;2023-05-20T04:08:27;10.50;99.90
10889;DHT22;5497;51.388;6.780;2023-05-20T04:10:55;10.60;99.90
10889;DHT22;5497;51.388;6.780;2023-05-20T04:13:23;10.60;99.90
10889;DHT22;5497;51.388;6.780;2023-05-20T04:15:51;10.80;99.90
10889;DHT22;5497;51.388;6.780;2023-05-20T04:18:18;10.80;99.90
10889;DHT22;5497;51.388;6.780;2023-05-20T04:20:48;10.90;99.90
10889;DHT22;5497;51.388;6.780;2023-05-20T04:23:19;10.90;99.90
10889;DHT22;5497;51.388;6.780;2023-05-20T04:25:46;11.00;99.90
10889;DHT22;5497;51.388;6.780;2023-05-20T04:28:13;11.10;99.90
10889;DHT22;5497;51.388;6.780;2023-05-20T04:30:41;11.10;99.90
10889;DHT22;5497;51.388;6.780;2023-05-20T04:33:12;11.20;99.90
10889;DHT22;5497;51.388;6.780;2023-05-20T04:35:39;11.20;99.90
10889;DHT22;5497;51.388;6.780;2023-05-20T04:38:08;11.30;99.90
10889;DHT22;5497;51.388;6.780;2023-05-20T04:40:35;11.40;99.90
10889;DHT22;5497;51.388;6.780;2023-05-20T04:43:02;11.40;99.90
10889;DHT22;5497;51.388;6.780;2023-05-20T04:45:29;11.50;99.90
10889;DHT22;5497;51.388;6.780;2023-05-20T04:47:58;11.50;99.90
10889;DHT22;5497;51.388;6.780;2023-05-20T04:50:26;11.50;99.90
10889;DHT22;5497;51.388;6.780;2023-05-20T04:52:53;11.60;99.90
10889;DHT22;5497;51.388;6.780;2023-05-20T04:55:20;11.70;99.90
10889;DHT22;5497;51.388;6.780;2023-05-20T04:57:49;11.80;99.90
10889;DHT22;5497;51.388;6.780;2023-05-20T05:00:16;11.80;99.90
10889;DHT22;5497;51.388;6.780;2023-05-20T05:02:43;11.80;99.90
10889;DHT22;5497;51.388;6.780;2023-05-20T05:05:10;11.90;99.90
10889;DHT22;5497;51.388;6.780;2023-05-20T05:10:07;12.10;99.90
10889;DHT22;5497;51.388;6.780;2023-05-20T05:12:34;12.30;99.90
10889;DHT22;5497;51.388;6.780;2023-05-20T05:15:02;12.40;99.90
10889;DHT22;5497;51.388;6.780;2023-05-20T05:17:29;12.60;99.90
10889;DHT22;5497;51.388;6.780;2023-05-20T05:19:57;12.60;99.90
10889;DHT22;5497;51.388;6.780;2023-05-20T05:22:26;12.90;99.90
10889;DHT22;5497;51.388;6.780;2023-05-20T05:24:53;13.10;99.90
10889;DHT22;5497;51.388;6.780;2023-05-20T05:27:22;13.20;99.90
10889;DHT22;5497;51.388;6.780;2023-05-20T05:29:49;13.30;99.90
10889;DHT22;5497;51.388;6.780;2023-05-20T05:32:17;14.10;99.90
10889;DHT22;5497;51.388;6.780;2023-05-20T05:34:44;15.00;99.90
10889;DHT22;5497;51.388;6.780;2023-05-20T05:37:11;15.90;99.90
10889;DHT22;5497;51.388;6.780;2023-05-20T05:39:38;17.90;99.90
10889;DHT22;5497;51.388;6.780;2023-05-20T05:42:05;18.40;99.90
10889;DHT22;5497;51.388;6.780;2023-05-20T05:44:34;19.20;99.90
10889;DHT22;5497;51.388;6.780;2023-05-20T05:47:04;20.30;99.90
10889;DHT22;5497;51.388;6.780;2023-05-20T05:49:31;20.70;99.90
10889;DHT22;5497;51.388;6.780;2023-05-20T05:51:58;20.80;99.90
10889;DHT22;5497;51.388;6.780;2023-05-20T05:54:25;20.80;99.90
10889;DHT22;5497;51.388;6.780;2023-05-20T05:56:52;20.70;99.90
10889;DHT22;5497;51.388;6.780;2023-05-20T05:59:21;20.80;99.90
10889;DHT22;5497;51.388;6.780;2023-05-20T06:01:49;21.00;99.90
10889;DHT22;5497;51.388;6.780;2023-05-20T06:04:16;21.00;99.90
10889;DHT22;5497;51.388;6.780;2023-05-20T06:06:43;21.20;99.20
10889;DHT22;5497;51.388;6.780;2023-05-20T06:09:10;21.70;99.30
10889;DHT22;5497;51.388;6.780;2023-05-20T06:11:37;22.00;98.00
10889;DHT22;5497;51.388;6.780;2023-05-20T06:14:08;22.20;97.70
10889;DHT22;5497;51.388;6.780;2023-05-20T06:16:35;22.70;96.80
10889;DHT22;5497;51.388;6.780;2023-05-20T06:19:04;22.70;96.60
10889;DHT22;5497;51.388;6.780;2023-05-20T06:21:33;22.70;96.20
10889;DHT22;5497;51.388;6.780;2023-05-20T06:24:01;23.00;96.70
10889;DHT22;5497;51.388;6.780;2023-05-20T06:26:29;23.30;93.50
10889;DHT22;5497;51.388;6.780;2023-05-20T06:28:57;23.30;93.70
10889;DHT22;5497;51.388;6.780;2023-05-20T06:31:25;22.90;93.70
10889;DHT22;5497;51.388;6.780;2023-05-20T06:33:54;22.20;93.30
10889;DHT22;5497;51.388;6.780;2023-05-20T06:36:23;21.80;94.10
10889;DHT22;5497;51.388;6.780;2023-05-20T06:38:50;21.90;94.10
10889;DHT22;5497;51.388;6.780;2023-05-20T06:41:18;22.10;94.60
10889;DHT22;5497;51.388;6.780;2023-05-20T06:43:50;21.50;93.80
10889;DHT22;5497;51.388;6.780;2023-05-20T06:46:48;21.60;94.40
10889;DHT22;5497;51.388;6.780;2023-05-20T06:49:15;21.60;94.80
10889;DHT22;5497;51.388;6.780;2023-05-20T06:51:43;21.40;94.50
10889;DHT22;5497;51.388;6.780;2023-05-20T06:54:10;21.40;94.30
10889;DHT22;5497;51.388;6.780;2023-05-20T06:56:38;22.00;94.10
10889;DHT22;5497;51.388;6.780;2023-05-20T06:59:05;22.20;94.50
10889;DHT22;5497;51.388;6.780;2023-05-20T07:01:34;22.30;94.40
10889;DHT22;5497;51.388;6.780;2023-05-20T07:04:02;21.60;93.20
10889;DHT22;5497;51.388;6.780;2023-05-20T07:06:31;20.50;94.10
10889;DHT22;5497;51.388;6.780;2023-05-20T07:09:00;20.40;94.40
10889;DHT22;5497;51.388;6.780;2023-05-20T07:11:28;20.80;95.30
10889;DHT22;5497;51.388;6.780;2023-05-20T07:13:55;22.80;95.00
10889;DHT22;5497;51.388;6.780;2023-05-20T07:18:53;24.30;93.40
10889;DHT22;5497;51.388;6.780;2023-05-20T07:21:20;23.30;92.50
10889;DHT22;5497;51.388;6.780;2023-05-20T07:24:12;22.70;91.80
10889;DHT22;5497;51.388;6.780;2023-05-20T07:26:39;20.20;92.80
10889;DHT22;5497;51.388;6.780;2023-05-20T07:29:07;20.20;93.30
10889;DHT22;5497;51.388;6.780;2023-05-20T07:31:39;19.90;94.00
10889;DHT22;5497;51.388;6.780;2023-05-20T07:34:06;19.30;94.30
10889;DHT22;5497;51.388;6.780;2023-05-20T07:36:33;19.00;95.40
10889;DHT22;5497;51.388;6.780;2023-05-20T07:39:04;19.00;95.70
10889;DHT22;5497;51.388;6.780;2023-05-20T07:41:35;18.70;96.00
10889;DHT22;5497;51.388;6.780;2023-05-20T07:44:04;18.80;96.30
10889;DHT22;5497;51.388;6.780;2023-05-20T07:46:37;18.60;96.30
10889;DHT22;5497;51.388;6.780;2023-05-20T07:49:08;19.10;96.70
10889;DHT22;5497;51.388;6.780;2023-05-20T07:51:38;18.80;96.20
10889;DHT22;5497;51.388;6.780;2023-05-20T07:54:05;18.60;96.30
10889;DHT22;5497;51.388;6.780;2023-05-20T07:56:32;18.50;96.90
10889;DHT22;5497;51.388;6.780;2023-05-20T07:59:01;18.50;97.20
10889;DHT22;5497;51.388;6.780;2023-05-20T08:01:34;18.40;96.90
10889;DHT22;5497;51.388;6.780;2023-05-20T08:04:04;18.30;96.90
10889;DHT22;5497;51.388;6.780;2023-05-20T08:06:31;18.10;97.30
10889;DHT22;5497;51.388;6.780;2023-05-20T08:08:58;18.10;97.60
10889;DHT22;5497;51.388;6.780;2023-05-20T08:11:29;18.10;97.80
10889;DHT22;5497;51.388;6.780;2023-05-20T08:13:57;18.00;97.90
10889;DHT22;5497;51.388;6.780;2023-05-20T08:16:28;18.10;98.40
10889;DHT22;5497;51.388;6.780;2023-05-20T08:18:55;18.00;98.50
10889;DHT22;5497;51.388;6.780;2023-05-20T08:21:22;18.20;98.70
10889;DHT22;5497;51.388;6.780;2023-05-20T08:23:52;18.50;98.50
10889;DHT22;5497;51.388;6.780;2023-05-20T08:26:21;18.60;98.40
10889;DHT22;5497;51.388;6.780;2023-05-20T08:28:49;18.80;98.10
10889;DHT22;5497;51.388;6.780;2023-05-20T08:31:18;18.80;97.80
10889;DHT22;5497;51.388;6.780;2023-05-20T08:33:53;18.70;98.20
10889;DHT22;5497;51.388;6.780;2023-05-20T08:36:20;20.10;99.00
10889;DHT22;5497;51.388;6.780;2023-05-20T08:38:48;18.80;98.20
10889;DHT22;5497;51.388;6.780;2023-05-20T08:41:15;18.80;98.60
10889;DHT22;5497;51.388;6.780;2023-05-20T08:43:45;19.10;98.70
10889;DHT22;5497;51.388;6.780;2023-05-20T08:46:13;19.20;98.40
10889;DHT22;5497;51.388;6.780;2023-05-20T08:48:40;19.50;98.60
10889;DHT22;5497;51.388;6.780;2023-05-20T08:51:11;20.00;98.40
10889;DHT22;5497;51.388;6.780;2023-05-20T08:53:43;20.00;98.00
10889;DHT22;5497;51.388;6.780;2023-05-20T08:56:10;19.90;97.80
10889;DHT22;5497;51.388;6.780;2023-05-20T08:58:39;20.00;98.10
10889;DHT22;5497;51.388;6.780;2023-05-20T09:01:07;20.00;97.50
10889;DHT22;5497;51.388;6.780;2023-05-20T09:03:34;20.10;97.80
10889;DHT22;5497;51.388;6.780;2023-05-20T09:06:05;19.90;97.50
10889;DHT22;5497;51.388;6.780;2023-05-20T09:08:37;20.10;97.80
10889;DHT22;5497;51.388;6.780;2023-05-20T09:11:04;20.20;97.50
10889;DHT22;5497;51.388;6.780;2023-05-20T09:13:31;20.40;97.80
10889;DHT22;5497;51.388;6.780;2023-05-20T09:15:59;20.40;97.20
10889;DHT22;5497;51.388;6.780;2023-05-20T09:18:27;20.50;97.10
10889;DHT22;5497;51.388;6.780;2023-05-20T09:20:54;20.70;96.60
10889;DHT22;5497;51.388;6.780;2023-05-20T09:23:24;20.60;96.90
10889;DHT22;5497;51.388;6.780;2023-05-20T09:25:53;20.60;96.90
10889;DHT22;5497;51.388;6.780;2023-05-20T09:28:21;20.70;97.00
10889;DHT22;5497;51.388;6.780;2023-05-20T09:30:49;20.50;96.80
10889;DHT22;5497;51.388;6.780;2023-05-20T09:33:17;20.20;96.50
10889;DHT22;5497;51.388;6.780;2023-05-20T09:35:44;20.20;96.80
10889;DHT22;5497;51.388;6.780;2023-05-20T09:38:12;19.90;97.10
10889;DHT22;5497;51.388;6.780;2023-05-20T09:40:40;18.70;97.20
10889;DHT22;5497;51.388;6.780;2023-05-20T09:43:10;19.90;97.90
10889;DHT22;5497;51.388;6.780;2023-05-20T09:45:38;20.30;97.50
10889;DHT22;5497;51.388;6.780;2023-05-20T09:48:05;20.20;97.50
10889;DHT22;5497;51.388;6.780;2023-05-20T09:50:35;20.40;97.20
10889;DHT22;5497;51.388;6.780;2023-05-20T09:53:02;20.40;97.00
10889;DHT22;5497;51.388;6.780;2023-05-20T09:55:30;20.40;97.20
10889;DHT22;5497;51.388;6.780;2023-05-20T09:57:57;20.30;97.30
10889;DHT22;5497;51.388;6.780;2023-05-20T10:00:29;20.20;97.60
10889;DHT22;5497;51.388;6.780;2023-05-20T10:02:57;20.00;97.50
10889;DHT22;5497;51.388;6.780;2023-05-20T10:05:26;20.10;97.50
10889;DHT22;5497;51.388;6.780;2023-05-20T10:07:59;20.20;97.40
10889;DHT22;5497;51.388;6.780;2023-05-20T10:10:32;20.30;97.30
10889;DHT22;5497;51.388;6.780;2023-05-20T10:13:05;19.80;97.30
10889;DHT22;5497;51.388;6.780;2023-05-20T10:15:39;20.00;97.90
10889;DHT22;5497;51.388;6.780;2023-05-20T10:18:12;20.10;97.90
10889;DHT22;5497;51.388;6.780;2023-05-20T10:20:45;20.60;97.40
10889;DHT22;5497;51.388;6.780;2023-05-20T10:23:20;20.50;97.30
10889;DHT22;5497;51.388;6.780;2023-05-20T10:25:49;20.70;96.90
10889;DHT22;5497;51.388;6.780;2023-05-20T10:28:23;20.70;96.50
10889;DHT22;5497;51.388;6.780;2023-05-20T10:30:54;20.40;97.00
10889;DHT22;5497;51.388;6.780;2023-05-20T10:33:24;20.10;97.50
10889;DHT22;5497;51.388;6.780;2023-05-20T10:35:52;20.20;97.50
10889;DHT22;5497;51.388;6.780;2023-05-20T10:38:19;20.20;97.20
10889;DHT22;5497;51.388;6.780;2023-05-20T10:40:49;20.10;97.70
10889;DHT22;5497;51.388;6.780;2023-05-20T10:43:25;20.30;97.90
10889;DHT22;5497;51.388;6.780;2023-05-20T10:45:57;20.30;97.50
10889;DHT22;5497;51.388;6.780;2023-05-20T10:48:33;20.40;97.60
10889;DHT22;5497;51.388;6.780;2023-05-20T10:51:00;20.30;97.40
10889;DHT22;5497;51.388;6.780;2023-05-20T10:53:36;20.30;97.70
10889;DHT22;5497;51.388;6.780;2023-05-20T10:56:04;21.10;98.30
10889;DHT22;5497;51.388;6.780;2023-05-20T10:58:35;20.30;97.60
10889;DHT22;5497;51.388;6.780;2023-05-20T11:01:05;20.40;98.00
10889;DHT22;5497;51.388;6.780;2023-05-20T11:03:33;20.60;98.00
10889;DHT22;5497;51.388;6.780;2023-05-20T11:06:00;20.70;98.10
10889;DHT22;5497;51.388;6.780;2023-05-20T11:08:29;20.90;97.50
10889;DHT22;5497;51.388;6.780;2023-05-20T11:10:58;20.60;97.60
10889;DHT22;5497;51.388;6.780;2023-05-20T11:13:25;20.10;97.40
10889;DHT22;5497;51.388;6.780;2023-05-20T11:15:53;19.90;97.70
10889;DHT22;5497;51.388;6.780;2023-05-20T11:18:22;19.70;98.10
10889;DHT22;5497;51.388;6.780;2023-05-20T11:20:54;19.70;98.20
10889;DHT22;5497;51.388;6.780;2023-05-20T11:23:24;19.50;98.40
10889;DHT22;5497;51.388;6.780;2023-05-20T11:25:52;19.70;98.70
10889;DHT22;5497;51.388;6.780;2023-05-20T11:28:19;19.80;98.60
10889;DHT22;5497;51.388;6.780;2023-05-20T11:30:46;19.50;98.70
10889;DHT22;5497;51.388;6.780;2023-05-20T11:33:14;20.00;99.20
10889;DHT22;5497;51.388;6.780;2023-05-20T11:35:45;20.10;98.60
10889;DHT22;5497;51.388;6.780;2023-05-20T11:38:12;20.10;99.10
10889;DHT22;5497;51.388;6.780;2023-05-20T11:40:42;20.30;99.30
10889;DHT22;5497;51.388;6.780;2023-05-20T11:43:09;20.60;99.10
10889;DHT22;5497;51.388;6.780;2023-05-20T11:45:38;20.50;98.50
10889;DHT22;5497;51.388;6.780;2023-05-20T11:48:05;20.50;98.50
10889;DHT22;5497;51.388;6.780;2023-05-20T11:50:34;20.40;98.50
10889;DHT22;5497;51.388;6.780;2023-05-20T11:53:05;20.30;98.70
10889;DHT22;5497;51.388;6.780;2023-05-20T11:55:33;20.20;98.80
10889;DHT22;5497;51.388;6.780;2023-05-20T11:58:01;20.60;98.80
10889;DHT22;5497;51.388;6.780;2023-05-20T12:00:29;20.60;99.20
10889;DHT22;5497;51.388;6.780;2023-05-20T12:02:56;20.80;99.50
10889;DHT22;5497;51.388;6.780;2023-05-20T12:05:23;24.60;99.90
10889;DHT22;5497;51.388;6.780;2023-05-20T12:07:50;21.70;98.20
10889;DHT22;5497;51.388;6.780;2023-05-20T12:10:19;21.70;98.30
10889;DHT22;5497;51.388;6.780;2023-05-20T12:12:51;21.90;97.90
10889;DHT22;5497;51.388;6.780;2023-05-20T12:15:18;21.60;98.20
10889;DHT22;5497;51.388;6.780;2023-05-20T12:17:46;21.70;98.20
10889;DHT22;5497;51.388;6.780;2023-05-20T12:20:15;21.80;98.30
10889;DHT22;5497;51.388;6.780;2023-05-20T12:22:43;21.90;98.00
10889;DHT22;5497;51.388;6.780;2023-05-20T12:25:10;21.90;98.00
10889;DHT22;5497;51.388;6.780;2023-05-20T12:27:40;22.40;98.20
10889;DHT22;5497;51.388;6.780;2023-05-20T12:30:07;22.40;98.20
10889;DHT22;5497;51.388;6.780;2023-05-20T12:32:37;22.50;97.90
10889;DHT22;5497;51.388;6.780;2023-05-20T12:35:04;22.50;97.90
10889;DHT22;5497;51.388;6.780;2023-05-20T12:37:31;22.60;98.10
10889;DHT22;5497;51.388;6.780;2023-05-20T12:39:59;22.80;98.40
10889;DHT22;5497;51.388;6.780;2023-05-20T12:42:26;22.90;97.50
10889;DHT22;5497;51.388;6.780;2023-05-20T12:44:57;23.00;97.60
10889;DHT22;5497;51.388;6.780;2023-05-20T12:47:24;23.50;97.40
10889;DHT22;5497;51.388;6.780;2023-05-20T12:49:51;23.50;96.10
10889;DHT22;5497;51.388;6.780;2023-05-20T12:52:19;23.40;96.20
10889;DHT22;5497;51.388;6.780;2023-05-20T12:54:48;22.70;96.20
10889;DHT22;5497;51.388;6.780;2023-05-20T12:57:16;22.70;96.50
10889;DHT22;5497;51.388;6.780;2023-05-20T12:59:44;22.70;96.70
10889;DHT22;5497;51.388;6.780;2023-05-20T13:02:15;22.80;96.20
10889;DHT22;5497;51.388;6.780;2023-05-20T13:04:42;22.80;96.40
10889;DHT22;5497;51.388;6.780;2023-05-20T13:07:10;22.60;96.20
10889;DHT22;5497;51.388;6.780;2023-05-20T13:09:37;22.60;96.50
10889;DHT22;5497;51.388;6.780;2023-05-20T13:12:05;22.50;96.40
10889;DHT22;5497;51.388;6.780;2023-05-20T13:14:32;22.40;96.60
10889;DHT22;5497;51.388;6.780;2023-05-20T13:17:00;22.50;96.60
10889;DHT22;5497;51.388;6.780;2023-05-20T13:19:28;22.60;96.50
10889;DHT22;5497;51.388;6.780;2023-05-20T13:21:55;22.50;96.50
10889;DHT22;5497;51.388;6.780;2023-05-20T13:24:23;22.70;97.20
10889;DHT22;5497;51.388;6.780;2023-05-20T13:26:50;23.20;96.60
10889;DHT22;5497;51.388;6.780;2023-05-20T13:29:17;23.00;95.60
10889;DHT22;5497;51.388;6.780;2023-05-20T13:31:45;22.40;95.90
10889;DHT22;5497;51.388;6.780;2023-05-20T13:34:12;22.50;96.10
10889;DHT22;5497;51.388;6.780;2023-05-20T13:36:41;22.20;96.00
10889;DHT22;5497;51.388;6.780;2023-05-20T13:39:08;22.30;96.30
10889;DHT22;5497;51.388;6.780;2023-05-20T13:41:35;22.10;95.60
10889;DHT22;5497;51.388;6.780;2023-05-20T13:44:02;21.90;96.00
10889;DHT22;5497;51.388;6.780;2023-05-20T13:46:29;21.40;96.20
10889;DHT22;5497;51.388;6.780;2023-05-20T13:48:56;21.50;96.50
10889;DHT22;5497;51.388;6.780;2023-05-20T13:51:23;21.40;96.60
10889;DHT22;5497;51.388;6.780;2023-05-20T13:53:51;21.10;96.40
10889;DHT22;5497;51.388;6.780;2023-05-20T13:56:18;21.10;96.70
10889;DHT22;5497;51.388;6.780;2023-05-20T13:58:47;21.20;96.40
10889;DHT22;5497;51.388;6.780;2023-05-20T14:01:14;21.20;96.60
10889;DHT22;5497;51.388;6.780;2023-05-20T14:03:41;21.30;96.70
10889;DHT22;5497;51.388;6.780;2023-05-20T14:06:08;21.30;96.60
10889;DHT22;5497;51.388;6.780;2023-05-20T14:08:38;21.20;96.40
10889;DHT22;5497;51.388;6.780;2023-05-20T14:11:07;21.20;96.50
10889;DHT22;5497;51.388;6.780;2023-05-20T14:13:34;21.00;96.60
10889;DHT22;5497;51.388;6.780;2023-05-20T14:16:00;21.10;97.00
10889;DHT22;5497;51.388;6.780;2023-05-20T14:18:27;21.20;96.70
10889;DHT22;5497;51.388;6.780;2023-05-20T14:20:55;21.30;97.10
10889;DHT22;5497;51.388;6.780;2023-05-20T14:23:21;21.30;96.70
10889;DHT22;5497;51.388;6.780;2023-05-20T14:25:48;21.30;96.70
10889;DHT22;5497;51.388;6.780;2023-05-20T14:28:17;21.50;97.20
10889;DHT22;5497;51.388;6.780;2023-05-20T14:30:44;21.70;96.60
10889;DHT22;5497;51.388;6.780;2023-05-20T14:33:11;21.70;96.70
10889;DHT22;5497;51.388;6.780;2023-05-20T14:35:39;21.80;96.40
10889;DHT22;5497;51.388;6.780;2023-05-20T14:38:06;21.80;96.70
10889;DHT22;5497;51.388;6.780;2023-05-20T14:40:33;21.50;96.50
10889;DHT22;5497;51.388;6.780;2023-05-20T14:43:01;22.20;96.30
10889;DHT22;5497;51.388;6.780;2023-05-20T14:45:32;22.20;96.50
10889;DHT22;5497;51.388;6.780;2023-05-20T14:47:59;22.20;96.00
10889;DHT22;5497;51.388;6.780;2023-05-20T14:50:30;22.00;95.60
10889;DHT22;5497;51.388;6.780;2023-05-20T14:52:57;22.10;95.70
10889;DHT22;5497;51.388;6.780;2023-05-20T14:55:25;22.20;96.10
10889;DHT22;5497;51.388;6.780;2023-05-20T14:57:53;22.30;95.70
10889;DHT22;5497;51.388;6.780;2023-05-20T15:00:23;22.30;95.80
10889;DHT22;5497;51.388;6.780;2023-05-20T15:02:53;22.20;95.30
10889;DHT22;5497;51.388;6.780;2023-05-20T15:05:26;22.20;95.60
10889;DHT22;5497;51.388;6.780;2023-05-20T15:07:54;21.70;95.50
10889;DHT22;5497;51.388;6.780;2023-05-20T15:10:22;19.70;94.90
10889;DHT22;5497;51.388;6.780;2023-05-20T15:12:54;21.40;95.50
10889;DHT22;5497;51.388;6.780;2023-05-20T15:15:21;21.20;95.60
10889;DHT22;5497;51.388;6.780;2023-05-20T15:17:48;20.80;95.60
10889;DHT22;5497;51.388;6.780;2023-05-20T15:20:16;20.70;96.30
10889;DHT22;5497;51.388;6.780;2023-05-20T15:22:43;20.70;96.40
10889;DHT22;5497;51.388;6.780;2023-05-20T15:25:12;20.70;96.60
10889;DHT22;5497;51.388;6.780;2023-05-20T15:27:39;20.70;97.20
10889;DHT22;5497;51.388;6.780;2023-05-20T15:30:06;20.80;97.00
10889;DHT22;5497;51.388;6.780;2023-05-20T15:32:33;20.80;96.80
10889;DHT22;5497;51.388;6.780;2023-05-20T15:35:00;20.60;96.50
10889;DHT22;5497;51.388;6.780;2023-05-20T15:37:28;21.00;97.00
10889;DHT22;5497;51.388;6.780;2023-05-20T15:39:55;21.10;97.00
10889;DHT22;5497;51.388;6.780;2023-05-20T15:42:21;21.00;96.60
10889;DHT22;5497;51.388;6.780;2023-05-20T15:44:49;20.90;96.40
10889;DHT22;5497;51.388;6.780;2023-05-20T15:47:15;20.90;96.80
10889;DHT22;5497;51.388;6.780;2023-05-20T15:49:42;20.70;96.80
10889;DHT22;5497;51.388;6.780;2023-05-20T15:52:09;20.40;96.80
10889;DHT22;5497;51.388;6.780;2023-05-20T15:54:37;20.20;96.70
10889;DHT22;5497;51.388;6.780;2023-05-20T15:57:04;20.00;97.20
10889;DHT22;5497;51.388;6.780;2023-05-20T15:59:31;19.80;97.30
10889;DHT22;5497;51.388;6.780;2023-05-20T16:01:57;19.70;97.70